Forside
METAR-TAF:

METAR-TAF

Lufthavne :

Pittsburgh International Airport

Pittsburgh, Pennsylvania, USA

Breddekreds: 40-30-14N, længdekreds: 080-15-59W, højde: 366 m

Aktuelle vejr

Denne rapport blev lavet for 23 minutter siden, kl. 22:51 UTC
Vind 15 kt fra nord
Temperatur 26°C
Fugtighed 48%
Tryk 1014 hPa
Sigt: 16.1 km
Nogle få skyer i en højde af 5500 ft
Brudte skyer i en højde af 25000 ft

METAR: KPIT 172251Z 35015KT 10SM FEW055 BKN250 26/14 A2994 RMK AO2 SLP135 T02560139

Tid: 19:14 (23:14 UTC)

Vejrudsigter

Denne rapport blev lavet for 2 timer og 27 minutter siden, kl. 20:47 UTC
Foreløbig gælder fra 17 på 21 UTC til 18 på 24 UTC
Vind 15 kt fra nordnordvest med vindstød på up til 23 kt
Sigt: 10 km
Spredte skyer i en højde af 5000 ft
Fra 17 på 2300 UTC
Vind 5 kt fra varierende retninger
Sigt: 10 km
skyfri

TAF: KPIT 172047Z 1721/1824 33015G23KT P6SM SCT050 FM172300 VRB05KT P6SM SKC

Vejrobservationer og prognoser fra mere end 4000 lufthavne (METAR og TAF).

De gule og røde prikker repræsenterer de meteorologiske stationer.

Flyt musen over at se navnet på stationen.

Så klik over at se vejr observationer og prognoser.

At skifte det kort: Klik på de grønne knapper med et sort kors for at zoome ind; på den grønne knap med en bindestreg for at zoome ud; eller på de grønne pile for tilstødende kort.


METAR-TAF: